Nagaleader — VRDD5 — position and weather

sailwx.info

Track history (hours):
 
Tides and Currents Weather Stations Pressure Air Temp Water Temp Dewpoint Dewpoint Depression Visibility Wind Speed Wind Dir Waves Ship Positions

Nagaleader

Last reported at 2016-Aug-28 11:32 UTC. Time now 2016-Aug-28 12:14 UTC.
Position N 26°00' E 119°29'.

Length 113 m; draft 6.5 m.

Type: Cargo ship. MMSI: 477926700.

Date/timePositionNaut miles runAvg speedWind from/ knotsBaromVisibWave heightAir tempDewpointWater temp
2016-Aug-28 11:32N 26°00' E 119°29'0 0.1
2016-Aug-28 10:32N 26°00' E 119°29'0 0.0
2016-Aug-28 09:32N 26°00' E 119°29'0 0.0
2016-Aug-28 08:32N 26°00' E 119°29'0 0.0
2016-Aug-28 07:14N 26°00' E 119°29'0 0.0
2016-Aug-28 06:32N 26°00' E 119°29'0 0.0
2016-Aug-28 05:32N 26°00' E 119°29'0 0.0
2016-Aug-28 04:32N 26°00' E 119°29'0 0.0
2016-Aug-28 03:32N 26°00' E 119°29'0 0.0
2016-Aug-28 02:32N 26°00' E 119°29'0 0.0
2016-Aug-28 01:32N 26°00' E 119°29'0 0.0
2016-Aug-28 00:32N 26°00' E 119°29'0 0.1
2016-Aug-27 23:32N 26°00' E 119°29'0 0.0
2016-Aug-27 22:32N 26°00' E 119°29'0 0.0
2016-Aug-27 21:26N 26°00' E 119°29'0 0.0
2016-Aug-27 20:32N 26°00' E 119°29'0 0.1
2016-Aug-27 19:34N 26°00' E 119°29'4 4.3
2016-Aug-27 18:33N 26°04' E 119°31'199 7.6
2016-Aug-26 16:27N 22°48' E 120°06'1112.1
2016-Aug-26 15:33N 22°38' E 120°11'9 8.8
2016-Aug-26 14:33N 22°33' E 120°19'0 0.4
2016-Aug-26 13:28N 22°34' E 120°19'0 0.1
2016-Aug-26 12:28N 22°34' E 120°19'0 0.1
2016-Aug-26 11:28N 22°34' E 120°19'0 0.0
2016-Aug-26 10:28N 22°34' E 120°19'0 0.0
2016-Aug-26 09:28N 22°34' E 120°19'0 0.0
2016-Aug-26 08:22N 22°34' E 120°19'0 0.0
2016-Aug-26 07:28N 22°34' E 120°19'0 0.0
2016-Aug-26 06:22N 22°34' E 120°19'2 0.2
2016-Aug-25 21:33N 22°33' E 120°17'1 1.3
2016-Aug-25 20:29N 22°32' E 120°16'0 0.1
2016-Aug-25 19:29N 22°32' E 120°16'0 0.1
2016-Aug-25 18:29N 22°32' E 120°16'0 0.1
2016-Aug-25 17:29N 22°32' E 120°16'1 1.0
2016-Aug-25 16:33N 22°32' E 120°15'1110.6
2016-Aug-25 15:33N 22°40' E 120°09'5412.0
2016-Aug-25 11:03N 23°33' E 119°55'1811.3
2016-Aug-25 09:28N 23°51' E 119°56'1110.8
2016-Aug-25 08:26N 24°02' E 119°56'2211.1
2016-Aug-25 06:26N 24°24' E 119°56'10610.5
2016-Aug-24 20:24N 26°08' E 119°36'810.1
2016-Aug-24 19:33N 26°01' E 119°30'1 1.3
2016-Aug-24 18:32N 26°00' E 119°29'0 0.0
2016-Aug-24 17:26N 26°00' E 119°29'0 0.0
2016-Aug-24 16:32N 26°00' E 119°29'0 0.0
2016-Aug-24 15:32N 26°00' E 119°29'0 0.0
2016-Aug-24 14:32N 26°00' E 119°29'0 0.0
2016-Aug-24 13:26N 26°00' E 119°29'0 0.0
2016-Aug-24 12:32N 26°00' E 119°29'0 0.0
2016-Aug-24 11:20N 26°00' E 119°29'0 0.0
2016-Aug-24 10:32N 26°00' E 119°29'0 0.0
2016-Aug-24 09:32N 26°00' E 119°29'0 0.0
2016-Aug-24 08:32N 26°00' E 119°29'0 0.0
2016-Aug-24 07:32N 26°00' E 119°29'0 0.0
2016-Aug-24 06:26N 26°00' E 119°29'0 0.0
2016-Aug-24 04:32N 26°00' E 119°29'0 0.0
2016-Aug-24 03:32N 26°00' E 119°29'0 0.0
2016-Aug-24 02:32N 26°00' E 119°29'0 0.0
2016-Aug-24 01:26N 26°00' E 119°29'0 0.4
2016-Aug-24 00:33N 26°01' E 119°29'9 9.0
2016-Aug-23 23:33N 26°08' E 119°35'126 8.4
2016-Aug-23 08:32N 24°03' E 119°55'7413.8
2016-Aug-23 03:08N 22°50' E 120°06'813.3
2016-Aug-23 02:34N 22°42' E 120°09'1111.5
2016-Aug-23 01:34N 22°33' E 120°16'3 3.0
2016-Aug-23 00:34N 22°34' E 120°19'0 0.0
2016-Aug-22 23:33N 22°34' E 120°19'0 0.0
2016-Aug-22 22:16N 22°34' E 120°19'0 0.1
2016-Aug-22 21:28N 22°34' E 120°19'0 0.0
2016-Aug-22 20:28N 22°34' E 120°19'0 0.0
2016-Aug-22 19:22N 22°34' E 120°19'0 0.0
2016-Aug-22 18:28N 22°34' E 120°19'0 0.0
2016-Aug-22 17:10N 22°34' E 120°19'0 0.0
2016-Aug-22 16:28N 22°34' E 120°19'0 0.0
2016-Aug-22 15:28N 22°34' E 120°19'1 0.1
2016-Aug-22 09:33N 22°33' E 120°18'6 6.2
2016-Aug-22 08:33N 22°33' E 120°12'1212.4
2016-Aug-22 07:33N 22°45' E 120°07'20510.5
2016-Aug-21 12:09N 26°07' E 119°34'711.4
2016-Aug-21 11:33N 26°02' E 119°30'2 1.4
2016-Aug-21 10:25N 26°00' E 119°29'0 0.0
2016-Aug-21 09:31N 26°00' E 119°29'0 0.0
2016-Aug-21 08:25N 26°00' E 119°29'0 0.0
2016-Aug-21 07:31N 26°00' E 119°29'0 0.0
2016-Aug-21 06:31N 26°00' E 119°29'0 0.0
2016-Aug-21 05:31N 26°00' E 119°29'0 0.0
2016-Aug-21 04:31N 26°00' E 119°29'0 0.0
2016-Aug-21 03:25N 26°00' E 119°29'0 0.0
2016-Aug-21 02:31N 26°00' E 119°29'0 0.0
2016-Aug-21 01:31N 26°00' E 119°29'0 0.0
2016-Aug-20 23:13N 26°00' E 119°29'0 0.0
2016-Aug-20 22:31N 26°00' E 119°29'0 0.0
2016-Aug-20 21:31N 26°00' E 119°29'0 0.0
2016-Aug-20 20:13N 26°00' E 119°29'0 0.0
2016-Aug-20 19:25N 26°00' E 119°29'0 0.0
2016-Aug-20 18:31N 26°00' E 119°29'0 0.0
2016-Aug-20 17:31N 26°00' E 119°29'0 0.0
2016-Aug-20 16:31N 26°00' E 119°29'0 0.0
2016-Aug-20 15:31N 26°00' E 119°29'0 0.0
2016-Aug-20 14:33N 26°00' E 119°29'2 1.8
2016-Aug-20 13:32N 26°02' E 119°30'20210.1
2016-Aug-19 17:34N 22°42' E 120°08'1211.5
2016-Aug-19 16:33N 22°33' E 120°16'3 0.4
2016-Aug-19 09:18N 22°34' E 120°19'0 0.0
2016-Aug-19 08:11N 22°34' E 120°19'3 0.3
2016-Aug-18 22:33N 22°32' E 120°16'8 7.6
2016-Aug-18 21:32N 22°37' E 120°10'  
Track history (hours):
 
Tides and Currents Weather Stations Pressure Air Temp Water Temp Dewpoint Dewpoint Depression Visibility Wind Speed Wind Dir Waves Ship Positions

Nagaleader

Last reported at 2016-Aug-28 11:32 UTC. Time now 2016-Aug-28 12:14 UTC.
Position N 26°00' E 119°29'.

Length 113 m; draft 6.5 m.

Type: Cargo ship. MMSI: 477926700.

Date/timePositionNaut miles runAvg speedWind from/ knotsBaromVisibWave heightAir tempDewpointWater temp
2016-Aug-28 11:32N 26°00' E 119°29'0 0.1
2016-Aug-28 10:32N 26°00' E 119°29'0 0.0
2016-Aug-28 09:32N 26°00' E 119°29'0 0.0
2016-Aug-28 08:32N 26°00' E 119°29'0 0.0
2016-Aug-28 07:14N 26°00' E 119°29'0 0.0
2016-Aug-28 06:32N 26°00' E 119°29'0 0.0
2016-Aug-28 05:32N 26°00' E 119°29'0 0.0
2016-Aug-28 04:32N 26°00' E 119°29'0 0.0
2016-Aug-28 03:32N 26°00' E 119°29'0 0.0
2016-Aug-28 02:32N 26°00' E 119°29'0 0.0
2016-Aug-28 01:32N 26°00' E 119°29'0 0.0
2016-Aug-28 00:32N 26°00' E 119°29'0 0.1
2016-Aug-27 23:32N 26°00' E 119°29'0 0.0
2016-Aug-27 22:32N 26°00' E 119°29'0 0.0
2016-Aug-27 21:26N 26°00' E 119°29'0 0.0
2016-Aug-27 20:32N 26°00' E 119°29'0 0.1
2016-Aug-27 19:34N 26°00' E 119°29'4 4.3
2016-Aug-27 18:33N 26°04' E 119°31'199 7.6
2016-Aug-26 16:27N 22°48' E 120°06'1112.1
2016-Aug-26 15:33N 22°38' E 120°11'9 8.8
2016-Aug-26 14:33N 22°33' E 120°19'0 0.4
2016-Aug-26 13:28N 22°34' E 120°19'0 0.1
2016-Aug-26 12:28N 22°34' E 120°19'0 0.1
2016-Aug-26 11:28N 22°34' E 120°19'0 0.0
2016-Aug-26 10:28N 22°34' E 120°19'0 0.0
2016-Aug-26 09:28N 22°34' E 120°19'0 0.0
2016-Aug-26 08:22N 22°34' E 120°19'0 0.0
2016-Aug-26 07:28N 22°34' E 120°19'0 0.0
2016-Aug-26 06:22N 22°34' E 120°19'2 0.2
2016-Aug-25 21:33N 22°33' E 120°17'1 1.3
2016-Aug-25 20:29N 22°32' E 120°16'0 0.1
2016-Aug-25 19:29N 22°32' E 120°16'0 0.1
2016-Aug-25 18:29N 22°32' E 120°16'0 0.1
2016-Aug-25 17:29N 22°32' E 120°16'1 1.0
2016-Aug-25 16:33N 22°32' E 120°15'1110.6
2016-Aug-25 15:33N 22°40' E 120°09'5412.0
2016-Aug-25 11:03N 23°33' E 119°55'1811.3
2016-Aug-25 09:28N 23°51' E 119°56'1110.8
2016-Aug-25 08:26N 24°02' E 119°56'2211.1
2016-Aug-25 06:26N 24°24' E 119°56'10610.5
2016-Aug-24 20:24N 26°08' E 119°36'810.1
2016-Aug-24 19:33N 26°01' E 119°30'1 1.3
2016-Aug-24 18:32N 26°00' E 119°29'0 0.0
2016-Aug-24 17:26N 26°00' E 119°29'0 0.0
2016-Aug-24 16:32N 26°00' E 119°29'0 0.0
2016-Aug-24 15:32N 26°00' E 119°29'0 0.0
2016-Aug-24 14:32N 26°00' E 119°29'0 0.0
2016-Aug-24 13:26N 26°00' E 119°29'0 0.0
2016-Aug-24 12:32N 26°00' E 119°29'0 0.0
2016-Aug-24 11:20N 26°00' E 119°29'0 0.0
2016-Aug-24 10:32N 26°00' E 119°29'0 0.0
2016-Aug-24 09:32N 26°00' E 119°29'0 0.0
2016-Aug-24 08:32N 26°00' E 119°29'0 0.0
2016-Aug-24 07:32N 26°00' E 119°29'0 0.0
2016-Aug-24 06:26N 26°00' E 119°29'0 0.0
2016-Aug-24 04:32N 26°00' E 119°29'0 0.0
2016-Aug-24 03:32N 26°00' E 119°29'0 0.0
2016-Aug-24 02:32N 26°00' E 119°29'0 0.0
2016-Aug-24 01:26N 26°00' E 119°29'0 0.4
2016-Aug-24 00:33N 26°01' E 119°29'9 9.0
2016-Aug-23 23:33N 26°08' E 119°35'126 8.4
2016-Aug-23 08:32N 24°03' E 119°55'7413.8
2016-Aug-23 03:08N 22°50' E 120°06'813.3
2016-Aug-23 02:34N 22°42' E 120°09'1111.5
2016-Aug-23 01:34N 22°33' E 120°16'3 3.0
2016-Aug-23 00:34N 22°34' E 120°19'0 0.0
2016-Aug-22 23:33N 22°34' E 120°19'0 0.0
2016-Aug-22 22:16N 22°34' E 120°19'0 0.1
2016-Aug-22 21:28N 22°34' E 120°19'0 0.0
2016-Aug-22 20:28N 22°34' E 120°19'0 0.0
2016-Aug-22 19:22N 22°34' E 120°19'0 0.0
2016-Aug-22 18:28N 22°34' E 120°19'0 0.0
2016-Aug-22 17:10N 22°34' E 120°19'0 0.0
2016-Aug-22 16:28N 22°34' E 120°19'0 0.0
2016-Aug-22 15:28N 22°34' E 120°19'1 0.1
2016-Aug-22 09:33N 22°33' E 120°18'6 6.2
2016-Aug-22 08:33N 22°33' E 120°12'1212.4
2016-Aug-22 07:33N 22°45' E 120°07'20510.5
2016-Aug-21 12:09N 26°07' E 119°34'711.4
2016-Aug-21 11:33N 26°02' E 119°30'2 1.4
2016-Aug-21 10:25N 26°00' E 119°29'0 0.0
2016-Aug-21 09:31N 26°00' E 119°29'0 0.0
2016-Aug-21 08:25N 26°00' E 119°29'0 0.0
2016-Aug-21 07:31N 26°00' E 119°29'0 0.0
2016-Aug-21 06:31N 26°00' E 119°29'0 0.0
2016-Aug-21 05:31N 26°00' E 119°29'0 0.0
2016-Aug-21 04:31N 26°00' E 119°29'0 0.0
2016-Aug-21 03:25N 26°00' E 119°29'0 0.0
2016-Aug-21 02:31N 26°00' E 119°29'0 0.0
2016-Aug-21 01:31N 26°00' E 119°29'0 0.0
2016-Aug-20 23:13N 26°00' E 119°29'0 0.0
2016-Aug-20 22:31N 26°00' E 119°29'0 0.0
2016-Aug-20 21:31N 26°00' E 119°29'0 0.0
2016-Aug-20 20:13N 26°00' E 119°29'0 0.0
2016-Aug-20 19:25N 26°00' E 119°29'0 0.0
2016-Aug-20 18:31N 26°00' E 119°29'0 0.0
2016-Aug-20 17:31N 26°00' E 119°29'0 0.0
2016-Aug-20 16:31N 26°00' E 119°29'0 0.0
2016-Aug-20 15:31N 26°00' E 119°29'0 0.0
2016-Aug-20 14:33N 26°00' E 119°29'2 1.8
2016-Aug-20 13:32N 26°02' E 119°30'20210.1
2016-Aug-19 17:34N 22°42' E 120°08'1211.5
2016-Aug-19 16:33N 22°33' E 120°16'3 0.4
2016-Aug-19 09:18N 22°34' E 120°19'0 0.0
2016-Aug-19 08:11N 22°34' E 120°19'3 0.3
2016-Aug-18 22:33N 22°32' E 120°16'8 7.6
2016-Aug-18 21:32N 22°37' E 120°10'  

Dump ship's entire track history